Flight Track Log - Related Links

Times and Time Zones

All times are in EDT time to prevent confusion due to time zone crossing. See the DAL1716 flight status page for this flight to view local times or setup timezone preferences in your user account.

Time Position Orientation Groundspeed Altitude Reporting Facility
EDT Latitude Longitude Course Direction KTS MPH feet Rate Location/Type
Thu 10:12:49 AM 39.9833 -104.6167 111° Southeast 248 285 9,200  Level Denver TRACON
Thu 10:13:31 AM 40.0167 -104.5833 37° Northeast 269 310 10,700 1,950 Climbing Denver TRACON
Thu 10:14:00 AM 39.6743 -104.0881 105° East  Level FlightAware Approximate
Thu 10:14:49 AM 40.0833 -104.4667 53° Northeast 351 404 13,100  Level Denver TRACON
Thu 10:15:00 AM 39.6310 -103.9429 113° Southeast  Level FlightAware Approximate
Thu 10:16:00 AM 39.5870 -103.7980 108° East  Level FlightAware Approximate
Thu 10:16:15 AM 40.0003 -104.3061 124° Southeast 352 405 17,700  Level Denver Center
Thu 10:17:00 AM 39.5445 -103.6536 107° East  Level FlightAware Approximate
Thu 10:17:17 AM 39.9242 -104.2119 136° Southeast 373 429 20,200  Level Denver Center
Thu 10:18:00 AM 39.5082 -103.5052 111° Southeast  Level FlightAware Approximate
Thu 10:18:19 AM 39.8481 -104.1150 136° Southeast 381 438 22,200  Level Denver Center
Thu 10:19:20 AM 39.7556 -104.0014 137° Southeast 425 489 23,000 780 Climbing Denver Center
Thu 10:20:22 AM 39.6694 -103.8911 135° Southeast 435 501 23,800 1,415 Climbing Denver Center
Thu 10:21:23 AM 39.5850 -103.7786 134° Southeast 439 505 25,900 1,707 Climbing Denver Center
Thu 10:22:25 AM 39.5492 -103.6394 108° East 426 490 27,300 1,452 Climbing Denver Center
Thu 10:23:27 AM 39.5069 -103.4719 108° East 438 504 28,900 1,659 Climbing Denver Center
Thu 10:24:28 AM 39.4689 -103.3275 109° East 441 507 30,700 1,805 Climbing Denver Center
Thu 10:25:30 AM 39.4250 -103.1633 109° East 433 498 32,600 1,113 Climbing Denver Center
Thu 10:26:32 AM 39.3872 -103.0233 109° East 433 498 33,000 634 Climbing Denver Center
Thu 10:27:33 AM 39.3425 -102.8575 109° East 437 503 33,900 1,024 Climbing Denver Center
Thu 10:28:35 AM 39.3033 -102.7119 109° East 441 507 35,100 1,161 Climbing Denver Center
Thu 10:29:37 AM 39.2650 -102.5683 109° East 443 510 36,300 1,113 Climbing Denver Center
Thu 10:30:39 AM 39.2200 -102.4022 109° East 441 507 37,400 732 Climbing Denver Center
Thu 10:31:40 AM 39.1792 -102.2583 110° East 445 512 37,800 683 Climbing Denver Center
Thu 10:32:42 AM 39.1306 -102.0836 110° East 460 529 38,800 581 Climbing Denver Center
Thu 10:33:44 AM 39.0906 -101.9369 109° East 457 526 39,000 97 Climbing Denver Center
Thu 10:34:46 AM 39.0489 -101.7944 111° Southeast 447 514 39,000  Level Denver Center
Thu 10:35:48 AM 39.0006 -101.6228 110° East 455 524 39,000  Level Denver Center
Thu 10:36:50 AM 38.9569 -101.4756 111° Southeast 459 528 39,000  Level Denver Center
Thu 10:37:52 AM 38.9067 -101.3017 110° East 463 533 39,000  Level Denver Center
Thu 10:38:54 AM 38.8625 -101.1525 111° Southeast 465 535 39,000  Level Denver Center
Thu 10:39:56 AM 38.8111 -100.9783 111° Southeast 467 537 39,000  Level Denver Center
Thu 10:40:58 AM 38.7675 -100.8294 111° Southeast 466 536 39,000  Level Denver Center
Thu 10:42:00 AM 38.7167 -100.6578 111° Southeast 464 534 39,000  Level Denver Center
Thu 10:43:02 AM 38.6725 -100.5114 111° Southeast 461 531 39,000  Level Denver Center
Thu 10:44:04 AM 38.6211 -100.3403 111° Southeast 460 529 39,000  Level Denver Center
Thu 10:45:06 AM 38.5764 -100.1931 111° Southeast 462 532 39,000  Level Denver Center
Thu 10:46:08 AM 38.5319 -100.0461 111° Southeast 462 532 39,000  Level Denver Center
Thu 10:47:10 AM 38.4800 -99.8767 111° Southeast 458 527 39,000  Level Denver Center
Thu 10:47:46 AM 38.4500 -99.7783 111° Southeast 458 527 39,000  Level Kansas City Center
Thu 10:48:47 AM 38.4036 -99.6328 112° Southeast 459 528 39,000  Level Kansas City Center
Thu 10:49:49 AM 38.3525 -99.4686 112° Southeast 466 536 39,000  Level Kansas City Center
Thu 10:50:51 AM 38.3039 -99.3125 112° Southeast 472 543 39,000  Level Kansas City Center
Thu 10:51:53 AM 38.2544 -99.1564 112° Southeast 475 547 39,000  Level Kansas City Center
Thu 10:52:54 AM 38.2050 -98.9989 112° Southeast 477 549 39,000  Level Kansas City Center
Thu 10:53:56 AM 38.1556 -98.8419 112° Southeast 480 552 39,000  Level Kansas City Center
Thu 10:54:58 AM 38.1053 -98.6842 112° Southeast 480 552 39,000  Level Kansas City Center
Thu 10:56:00 AM 38.0539 -98.5272 113° Southeast 482 555 39,000  Level Kansas City Center
Thu 10:57:01 AM 37.9950 -98.3397 112° Southeast 478 550 39,000  Level Kansas City Center
Thu 10:58:03 AM 37.9433 -98.1839 113° Southeast 480 552 39,000  Level Kansas City Center
Thu 10:59:05 AM 37.8950 -98.0392 113° Southeast 482 555 39,000  Level Kansas City Center
Thu 11:00:07 AM 37.8433 -97.8839 113° Southeast 480 552 39,000  Level Kansas City Center
Thu 11:01:09 AM 37.7833 -97.6983 112° Southeast 477 549 39,000  Level Kansas City Center
Thu 11:02:10 AM 37.7264 -97.5378 114° Southeast 481 554 39,000  Level Kansas City Center
Thu 11:03:12 AM 37.6672 -97.3900 117° Southeast 483 556 39,000  Level Kansas City Center
Thu 11:04:14 AM 37.6047 -97.2414 118° Southeast 479 551 39,000  Level Kansas City Center
Thu 11:05:16 AM 37.5436 -97.0925 117° Southeast 478 550 39,000  Level Kansas City Center
Thu 11:06:18 AM 37.4822 -96.9444 118° Southeast 478 550 39,000  Level Kansas City Center
Thu 11:07:20 AM 37.4200 -96.7964 118° Southeast 478 550 39,000  Level Kansas City Center
Thu 11:08:22 AM 37.3453 -96.6203 118° Southeast 476 548 39,000  Level Kansas City Center
Thu 11:09:23 AM 37.2828 -96.4739 118° Southeast 477 549 39,000  Level Kansas City Center
Thu 11:10:25 AM 37.2156 -96.3139 118° Southeast 474 545 39,000  Level Kansas City Center
Thu 11:11:27 AM 37.1531 -96.1689 118° Southeast 472 543 39,000  Level Kansas City Center
Thu 11:12:29 AM 37.0908 -96.0250 118° Southeast 469 540 39,000  Level Kansas City Center
Thu 11:13:31 AM 37.0281 -95.8822 119° Southeast 467 537 39,000  Level Kansas City Center
Thu 11:14:33 AM 36.9656 -95.7389 119° Southeast 467 537 39,000  Level Kansas City Center
Thu 11:15:35 AM 36.9031 -95.5953 119° Southeast 467 537 39,000  Level Kansas City Center
Thu 11:16:37 AM 36.8406 -95.4525 119° Southeast 465 535 39,000  Level Kansas City Center
Thu 11:17:39 AM 36.7769 -95.3081 119° Southeast 467 537 39,000  Level Kansas City Center
Thu 11:18:41 AM 36.7125 -95.1622 119° Southeast 471 542 39,000  Level Kansas City Center
Thu 11:19:43 AM 36.6339 -94.9867 119° Southeast 479 551 39,000  Level Kansas City Center
Thu 11:20:45 AM 36.5692 -94.8417 119° Southeast 476 548 39,000  Level Kansas City Center
Thu 11:21:47 AM 36.5036 -94.6975 119° Southeast 476 548 39,000  Level Kansas City Center
Thu 11:22:49 AM 36.4392 -94.5528 119° Southeast 476 548 39,000  Level Kansas City Center
Thu 11:23:44 AM 36.3742 -94.4114 120° Southeast 481 554 39,000  Level Memphis Center
Thu 11:24:44 AM 36.3100 -94.2689 119° Southeast 476 548 39,000  Level Memphis Center
Thu 11:25:44 AM 36.2456 -94.1244 119° Southeast 476 548 39,000  Level Memphis Center
Thu 11:26:44 AM 36.1983 -93.9653 110° East 476 548 39,000  Level Memphis Center
Thu 11:27:44 AM 36.1569 -93.8067 108° East 481 554 39,000  Level Memphis Center
Thu 11:28:44 AM 36.1131 -93.6481 109° East 481 554 39,000  Level Memphis Center
Thu 11:29:44 AM 36.0672 -93.4897 110° East 486 559 39,000  Level Memphis Center
Thu 11:30:44 AM 36.0231 -93.3314 109° East 486 559 39,000  Level Memphis Center
Thu 11:31:44 AM 35.9789 -93.1733 109° East 492 566 39,000  Level Memphis Center
Thu 11:32:44 AM 35.9344 -93.0156 109° East 492 566 39,000  Level Memphis Center
Thu 11:33:44 AM 35.8897 -92.8553 109° East 492 566 39,000  Level Memphis Center
Thu 11:34:44 AM 35.8428 -92.6975 110° East 492 566 39,000  Level Memphis Center
Thu 11:35:44 AM 35.7975 -92.5428 110° East 492 566 39,000  Level Memphis Center
Thu 11:36:44 AM 35.7522 -92.3831 109° East 492 566 39,000  Level Memphis Center
Thu 11:37:44 AM 35.7047 -92.2258 110° East 492 566 39,000  Level Memphis Center
Thu 11:38:44 AM 35.6589 -92.0689 110° East 492 566 39,000  Level Memphis Center
Thu 11:39:44 AM 35.6131 -91.9172 110° East 487 560 39,000  Level Memphis Center
Thu 11:40:44 AM 35.5647 -91.7581 110° East 487 560 39,000  Level Memphis Center
Thu 11:41:44 AM 35.5186 -91.6044 110° East 487 560 39,000  Level Memphis Center
Thu 11:42:44 AM 35.4700 -91.4481 111° Southeast 487 560 39,000  Level Memphis Center
Thu 11:43:44 AM 35.4253 -91.2922 109° East 487 560 39,000  Level Memphis Center
Thu 11:44:44 AM 35.3783 -91.1414 111° Southeast 487 560 39,000 -250 Level Memphis Center
Thu 11:45:44 AM 35.3353 -90.9958 110° East 469 540 38,500 -1,000 Descending Memphis Center
Thu 11:46:44 AM 35.2900 -90.8556 112° Southeast 450 518 37,000 -750 Descending Memphis Center
Thu 11:47:44 AM 35.2447 -90.7131 111° Southeast 445 512 37,000  Level Memphis Center
Thu 11:48:44 AM 35.2053 -90.5858 111° Southeast 445 512 37,000  Level Memphis Center
Thu 11:49:44 AM 35.1617 -90.4433 110° East 445 512 37,000  Level Memphis Center
Thu 11:50:44 AM 35.1158 -90.3011 111° Southeast 445 512 37,000  Level Memphis Center
Thu 11:51:44 AM 35.0739 -90.1617 110° East 445 512 37,000  Level Memphis Center
Thu 11:52:44 AM 35.0297 -90.0222 111° Southeast 445 512 37,000  Level Memphis Center
Thu 11:53:44 AM 35.0000 -89.8603 103° East 445 512 37,000 -250 Level Memphis Center
Thu 11:54:44 AM 34.9764 -89.7058 101° East 451 519 36,500 -750 Descending Memphis Center
Thu 11:55:44 AM 34.9547 -89.5514 100° East 461 531 35,500 -750 Descending Memphis Center
Thu 11:56:44 AM 34.9306 -89.4022 101° East 448 516 35,000 -250 Descending Memphis Center
Thu 11:57:44 AM 34.9086 -89.2631 101° East 448 516 35,000  Level Memphis Center
Thu 11:58:44 AM 34.8864 -89.1089 100° East 458 527 35,000  Level Memphis Center
Thu 11:59:44 AM 34.8617 -88.9550 101° East 466 536 35,000  Level Memphis Center
Thu 12:00:44 PM 34.8389 -88.7986 100° East 473 544 35,000  Level Memphis Center
Thu 12:01:44 PM 34.8139 -88.6394 101° East 473 544 35,000  Level Memphis Center
Thu 12:02:44 PM 34.7864 -88.4733 101° East 466 536 35,000  Level Memphis Center
Thu 12:03:44 PM 34.7611 -88.3169 101° East 466 536 35,000  Level Memphis Center
Thu 12:04:44 PM 34.7353 -88.1536 101° East 478 550 35,000  Level Memphis Center
Thu 12:05:44 PM 34.7094 -87.9925 101° East 486 559 35,000 -250 Level Memphis Center
Thu 12:06:44 PM 34.6853 -87.8339 100° East 486 559 34,500 -700 Descending Memphis Center
Thu 12:07:44 PM 34.6592 -87.6758 101° East 481 554 33,600 -750 Descending Memphis Center
Thu 12:08:44 PM 34.6397 -87.5528 101° East 481 554 33,000 -247 Descending Memphis Center
Thu 12:10:10 PM 34.5944 -87.2939 102° East 463 533 33,000  Level Atlanta Center
Thu 12:11:10 PM 34.5631 -87.1339 103° East 463 533 33,000  Level Atlanta Center
Thu 12:12:10 PM 34.5336 -86.9764 103° East 476 548 33,000 -50 Level Atlanta Center
Thu 12:13:10 PM 34.5017 -86.8189 104° East 476 548 32,900 -650 Descending Atlanta Center
Thu 12:14:10 PM 34.4719 -86.6592 103° East 471 542 31,700 -1,200 Descending Atlanta Center
Thu 12:15:10 PM 34.4417 -86.4997 103° East 477 549 30,500 -1,250 Descending Atlanta Center
Thu 12:16:10 PM 34.4094 -86.3375 103° East 477 549 29,200 -1,300 Descending Atlanta Center
Thu 12:17:10 PM 34.3769 -86.1756 104° East 483 556 27,900 -1,050 Descending Atlanta Center
Thu 12:18:10 PM 34.3442 -86.0061 103° East 495 570 27,100 -850 Descending Atlanta Center
Thu 12:19:10 PM 34.3111 -85.8444 104° East 495 570 26,200 -850 Descending Atlanta Center
Thu 12:20:10 PM 34.2819 -85.7006 104° East 490 564 25,400 -1,000 Descending Atlanta Center
Thu 12:21:10 PM 34.2506 -85.5392 103° East 482 555 24,200 -2,200 Descending Atlanta Center
Thu 12:22:10 PM 34.2169 -85.3803 104° East 482 555 21,000 -3,050 Descending Atlanta Center
Thu 12:23:10 PM 34.1831 -85.2139 104° East 467 537 18,100 -2,700 Descending Atlanta Center
Thu 12:24:10 PM 34.1322 -85.0778 114° Southeast 455 524 15,600 -2,050 Descending Atlanta Center
Thu 12:25:10 PM 34.0494 -84.9714 133° Southeast 435 501 14,000 -1,150 Descending Atlanta Center
Thu 12:26:10 PM 33.9708 -84.8756 135° Southeast 416 479 13,300 -950 Descending Atlanta Center
Thu 12:27:10 PM 33.8964 -84.7822 134° Southeast 399 459 12,100 -650 Descending Atlanta Center
Thu 12:28:10 PM 33.8322 -84.7014 134° Southeast 356 410 12,000 -50 Descending Atlanta Center
Thu 12:29:11 PM 33.7833 -84.6333 131° Southeast 264 304 12,000 -50 Level Atlanta TRACON
Thu 12:30:11 PM 33.7333 -84.5667 132° Southeast 267 307 11,900 -600 Descending Atlanta TRACON
Thu 12:31:11 PM 33.7333 -84.4667 90° East 266 306 10,800 -1,250 Descending Atlanta TRACON
Thu 12:32:11 PM 33.7333 -84.3833 90° East 265 305 9,400 -1,650 Descending Atlanta TRACON
Thu 12:33:11 PM 33.7333 -84.3000 90° East 237 273 7,500 -1,950 Descending Atlanta TRACON
Thu 12:34:11 PM 33.7333 -84.2333 90° East 231 266 5,500 -1,450 Descending Atlanta TRACON
Thu 12:35:11 PM 33.7167 -84.1667 107° East 239 275 4,600 -750 Descending Atlanta TRACON
Thu 12:36:11 PM 33.6667 -84.1667 180° South 200 230 4,000 -350 Descending Atlanta TRACON
Thu 12:37:11 PM 33.6500 -84.2333 253° West 165 190 3,900 -476 Descending Atlanta TRACON
Thu 12:38:17 PM 33.6500 -84.2833 270° West 172 198 3,000 -818 Descending Atlanta TRACON

Login

Don't have an account? Register now (free) for customized features, flight alerts, and more!